createdAt,value
2022-11-19T00:01:27.714Z,97275.56
2022-11-19T00:03:56.215Z,97279.06
2022-11-19T00:06:27.073Z,97279.28
2022-11-19T00:08:55.502Z,97279.47
2022-11-19T00:11:45.446Z,97280.72
2022-11-19T00:14:15.906Z,97280.19
2022-11-19T00:16:45.535Z,97283.28
2022-11-19T00:19:13.650Z,97284.19
2022-11-19T00:21:40.900Z,97287.44
2022-11-19T00:24:09.331Z,97279.59
2022-11-19T00:26:36.593Z,97283.97
2022-11-19T00:29:04.572Z,97290.31
2022-11-19T00:31:32.452Z,97302.72
2022-11-19T00:33:59.982Z,97301.88
2022-11-19T00:36:27.112Z,97300.84
2022-11-19T00:38:55.209Z,97300.44
2022-11-19T00:41:23.363Z,97302.94
2022-11-19T00:43:51.031Z,97304.44
2022-11-19T00:46:26.336Z,97302.84
2022-11-19T00:48:56.949Z,97302.00
2022-11-19T00:51:28.652Z,97300.25
2022-11-19T00:53:56.655Z,97301.84
2022-11-19T00:56:27.245Z,97303.34
2022-11-19T00:58:55.645Z,97298.41
2022-11-19T01:01:25.682Z,97304.25
2022-11-19T01:03:54.031Z,97303.75
2022-11-19T01:06:24.818Z,97306.13
2022-11-19T01:08:53.897Z,97298.16
2022-11-19T01:11:25.774Z,97311.53
2022-11-19T01:13:54.016Z,97310.41
2022-11-19T01:16:29.613Z,97315.19
2022-11-19T01:18:58.315Z,97315.09
2022-11-19T01:21:32.929Z,97325.25
2022-11-19T01:24:02.419Z,97328.63
2022-11-19T01:26:30.441Z,97327.06
2022-11-19T01:28:58.403Z,97323.47
2022-11-19T01:31:29.502Z,97320.19
2022-11-19T01:33:57.377Z,97327.97
2022-11-19T01:36:28.703Z,97325.97
2022-11-19T01:38:57.903Z,97335.66
2022-11-19T01:41:32.650Z,97334.50
2022-11-19T01:44:05.306Z,97339.41
2022-11-19T01:46:36.535Z,97336.75
2022-11-19T01:49:20.468Z,97332.56
2022-11-19T01:51:58.554Z,97328.91
2022-11-19T01:54:39.476Z,97341.81
2022-11-19T01:57:14.564Z,97335.09
2022-11-19T01:59:45.100Z,97331.16
2022-11-19T02:02:12.946Z,97341.97
2022-11-19T02:04:41.052Z,97336.81
2022-11-19T02:07:09.977Z,97348.06
2022-11-19T02:09:39.536Z,97342.91
2022-11-19T02:12:33.824Z,97348.81
2022-11-19T02:15:30.805Z,97343.63
2022-11-19T02:18:34.691Z,97336.09
2022-11-19T02:21:21.810Z,97341.97
2022-11-19T02:24:18.306Z,97343.63
2022-11-19T02:27:15.289Z,97360.59
2022-11-19T02:30:00.699Z,97364.72
2022-11-19T02:33:00.108Z,97371.19
2022-11-19T02:36:23.784Z,97370.91
2022-11-19T02:39:17.785Z,97374.25
2022-11-19T02:42:10.866Z,97387.00
2022-11-19T02:45:00.825Z,97368.97
2022-11-19T02:47:30.947Z,97381.50
2022-11-19T02:50:09.741Z,97382.47
2022-11-19T02:52:39.491Z,97378.63
2022-11-19T02:55:07.737Z,97385.34
2022-11-19T02:57:36.671Z,97393.63
2022-11-19T03:00:25.906Z,97388.63
2022-11-19T03:03:40.125Z,97392.34
2022-11-19T03:06:20.519Z,97383.22
2022-11-19T03:08:48.057Z,97386.81
2022-11-19T03:11:24.517Z,97388.34
2022-11-19T03:14:19.264Z,97391.56
2022-11-19T03:17:04.858Z,97391.38
2022-11-19T03:19:44.235Z,97408.53
2022-11-19T03:22:23.192Z,97407.84
2022-11-19T03:25:00.942Z,97418.22
2022-11-19T03:27:48.122Z,97407.25
2022-11-19T03:30:20.009Z,97412.38
2022-11-19T03:33:31.869Z,97414.19
2022-11-19T03:36:06.855Z,97417.53
2022-11-19T03:38:49.116Z,97420.94
2022-11-19T03:41:20.642Z,97421.66
2022-11-19T03:43:58.283Z,97424.22
2022-11-19T03:46:29.403Z,97433.41
2022-11-19T03:49:00.341Z,97435.88
2022-11-19T03:51:44.227Z,97431.41
2022-11-19T03:54:12.039Z,97440.81
2022-11-19T03:56:41.779Z,97439.81
2022-11-19T03:59:12.859Z,97440.72
2022-11-19T04:01:40.696Z,97434.75
2022-11-19T04:04:26.827Z,97433.84
2022-11-19T04:06:54.556Z,97439.72
2022-11-19T04:09:22.240Z,97434.81
2022-11-19T04:14:16.067Z,97448.44
2022-11-19T04:16:43.289Z,97457.13
2022-11-19T04:19:10.891Z,97454.56
2022-11-19T04:21:38.073Z,97462.22
2022-11-19T04:24:06.166Z,97458.22
2022-11-19T04:26:33.333Z,97458.28
2022-11-19T04:29:00.987Z,97461.88
2022-11-19T04:31:28.254Z,97466.91
2022-11-19T04:33:55.714Z,97471.28
2022-11-19T04:36:22.987Z,97472.88
2022-11-19T04:38:50.407Z,97477.19
2022-11-19T04:41:17.563Z,97474.53
2022-11-19T04:43:45.049Z,97482.47
2022-11-19T04:46:12.271Z,97478.97
2022-11-19T04:48:39.755Z,97481.34
2022-11-19T04:51:06.924Z,97489.50
2022-11-19T04:53:34.387Z,97487.47
2022-11-19T04:56:01.583Z,97486.63
2022-11-19T04:58:29.042Z,97492.59
2022-11-19T05:00:56.197Z,97493.81
2022-11-19T05:03:23.655Z,97498.66
2022-11-19T05:05:50.949Z,97503.13
2022-11-19T05:08:18.377Z,97507.34
2022-11-19T05:10:45.635Z,97509.09
2022-11-19T05:13:13.315Z,97510.00
2022-11-19T05:15:40.773Z,97511.03
2022-11-19T05:18:08.445Z,97513.25
2022-11-19T05:20:35.748Z,97520.13
2022-11-19T05:23:03.343Z,97518.34
2022-11-19T05:25:30.715Z,97515.88
2022-11-19T05:27:58.177Z,97526.22
2022-11-19T05:30:25.386Z,97514.06
2022-11-19T05:32:53.076Z,97528.66
2022-11-19T05:35:20.283Z,97526.44
2022-11-19T05:37:51.759Z,97539.72
2022-11-19T05:40:19.139Z,97535.69
2022-11-19T05:42:46.641Z,97540.69
2022-11-19T05:45:13.932Z,97549.09
2022-11-19T05:47:45.927Z,97548.94
2022-11-19T05:50:15.639Z,97546.47
2022-11-19T05:52:43.065Z,97552.84
2022-11-19T05:55:10.273Z,97562.19
2022-11-19T05:57:37.731Z,97555.97
2022-11-19T06:00:06.098Z,97557.91
2022-11-19T06:02:33.631Z,97565.06
2022-11-19T06:05:00.967Z,97562.38
2022-11-19T06:07:28.554Z,97572.44
2022-11-19T06:09:55.733Z,97571.88
2022-11-19T06:12:28.269Z,97563.81
2022-11-19T06:15:02.177Z,97577.66
2022-11-19T06:17:29.895Z,97577.06
2022-11-19T06:19:57.317Z,97588.06
2022-11-19T06:22:24.793Z,97595.22
2022-11-19T06:24:51.944Z,97600.16
2022-11-19T06:27:19.465Z,97606.84
2022-11-19T06:29:46.727Z,97614.94
2022-11-19T06:32:14.214Z,97615.38
2022-11-19T06:34:41.387Z,97622.31
2022-11-19T06:37:08.877Z,97619.75
2022-11-19T06:39:36.109Z,97616.28
2022-11-19T06:42:22.330Z,97624.88
2022-11-19T06:44:49.562Z,97614.81
2022-11-19T06:47:17.081Z,97623.97
2022-11-19T06:49:44.373Z,97625.38
2022-11-19T06:52:11.893Z,97621.75
2022-11-19T06:54:42.930Z,97620.66
2022-11-19T06:57:10.762Z,97629.31
2022-11-19T06:59:39.130Z,97636.63
2022-11-19T07:02:08.484Z,97639.88
2022-11-19T07:04:35.774Z,97643.09
2022-11-19T07:07:03.746Z,97642.00
2022-11-19T07:09:31.126Z,97643.72
2022-11-19T07:11:58.649Z,97635.38
2022-11-19T07:14:25.879Z,97651.03
2022-11-19T07:16:53.419Z,97650.66
2022-11-19T07:19:21.026Z,97651.16
2022-11-19T07:21:48.688Z,97650.88
2022-11-19T07:24:17.945Z,97666.06
2022-11-19T07:26:45.769Z,97659.72
2022-11-19T07:29:15.324Z,97662.75
2022-11-19T07:31:42.978Z,97668.47
2022-11-19T07:34:11.290Z,97655.34
2022-11-19T07:36:38.804Z,97657.69
2022-11-19T07:39:06.403Z,97661.09
2022-11-19T07:41:52.783Z,97658.41
2022-11-19T07:44:20.150Z,97654.63
2022-11-19T07:46:47.646Z,97656.31
2022-11-19T07:49:15.081Z,97650.69
2022-11-19T07:51:42.754Z,97659.31
2022-11-19T07:54:12.732Z,97659.38
2022-11-19T07:56:40.921Z,97658.47
2022-11-19T07:59:08.221Z,97660.06
2022-11-19T08:01:36.182Z,97664.34
2022-11-19T08:04:05.348Z,97662.47
2022-11-19T08:06:34.808Z,97671.38
2022-11-19T08:09:04.332Z,97673.59
2022-11-19T08:11:32.304Z,97678.81
2022-11-19T08:14:02.938Z,97682.13
2022-11-19T08:16:52.013Z,97679.19
2022-11-19T08:19:24.370Z,97679.75
2022-11-19T08:21:52.039Z,97681.09
2022-11-19T08:24:21.064Z,97675.34
2022-11-19T08:26:49.346Z,97675.13
2022-11-19T08:29:20.447Z,97675.41
2022-11-19T08:31:48.784Z,97680.03
2022-11-19T08:34:17.812Z,97675.22
2022-11-19T08:36:45.736Z,97691.19
2022-11-19T08:39:13.003Z,97680.41
2022-11-19T08:41:59.078Z,97687.47
2022-11-19T08:44:26.472Z,97697.13
2022-11-19T08:46:54.087Z,97697.38
2022-11-19T08:49:21.685Z,97701.00
2022-11-19T08:51:49.207Z,97700.53
2022-11-19T08:54:17.081Z,97700.91
2022-11-19T08:56:45.327Z,97693.53
2022-11-19T08:59:12.671Z,97710.53
2022-11-19T09:01:40.386Z,97715.56
2022-11-19T09:04:07.657Z,97704.81
2022-11-19T09:06:35.413Z,97713.66
2022-11-19T09:09:04.461Z,97714.66
2022-11-19T09:11:32.219Z,97719.03
2022-11-19T09:14:00.027Z,97720.91
2022-11-19T09:16:27.989Z,97724.00
2022-11-19T09:18:55.346Z,97728.75
2022-11-19T09:21:23.061Z,97729.44
2022-11-19T09:23:50.313Z,97727.19
2022-11-19T09:26:19.336Z,97728.50
2022-11-19T09:28:47.096Z,97726.66
2022-11-19T09:31:18.449Z,97727.06
2022-11-19T09:33:49.797Z,97738.53
2022-11-19T09:36:19.573Z,97734.63
2022-11-19T09:38:48.176Z,97732.16
2022-11-19T09:41:21.021Z,97725.81
2022-11-19T09:44:13.139Z,97733.47
2022-11-19T09:47:00.054Z,97730.38
2022-11-19T09:49:51.241Z,97730.25
2022-11-19T09:52:25.142Z,97726.63
2022-11-19T09:54:56.784Z,97731.63
2022-11-19T09:57:50.649Z,97727.09
2022-11-19T10:00:23.393Z,97723.47
2022-11-19T10:02:51.645Z,97723.84
2022-11-19T10:05:30.168Z,97721.81
2022-11-19T10:08:28.268Z,97709.75
2022-11-19T10:11:27.139Z,97712.28
2022-11-19T10:14:44.777Z,97712.97
2022-11-19T10:17:59.306Z,97708.25
2022-11-19T10:21:11.447Z,97712.97
2022-11-19T10:24:18.057Z,97708.16
2022-11-19T10:27:09.969Z,97699.03
2022-11-19T10:29:40.468Z,97701.19
2022-11-19T10:32:41.388Z,97698.25
2022-11-19T10:35:18.570Z,97697.81
2022-11-19T10:38:01.358Z,97698.59
2022-11-19T10:40:40.504Z,97701.16
2022-11-19T10:43:46.474Z,97697.03
2022-11-19T10:46:19.463Z,97692.56
2022-11-19T10:48:51.913Z,97697.59
2022-11-19T10:51:24.839Z,97689.75
2022-11-19T10:53:55.744Z,97700.38
2022-11-19T10:56:54.215Z,97704.16
2022-11-19T10:59:27.787Z,97704.53
2022-11-19T11:02:09.077Z,97715.47
2022-11-19T11:05:11.723Z,97712.22
2022-11-19T11:07:55.547Z,97722.59
2022-11-19T11:10:39.040Z,97702.66
2022-11-19T11:14:15.060Z,97700.31
2022-11-19T11:16:48.158Z,97702.72
2022-11-19T11:19:20.015Z,97697.28
2022-11-19T11:21:54.724Z,97703.66
2022-11-19T11:24:31.754Z,97705.38
2022-11-19T11:27:19.500Z,97710.28
2022-11-19T11:29:46.791Z,97711.84
2022-11-19T11:32:33.555Z,97704.47
2022-11-19T11:35:05.252Z,97705.47
2022-11-19T11:37:35.446Z,97695.97
2022-11-19T11:40:02.844Z,97699.41
2022-11-19T11:42:31.160Z,97706.78
2022-11-19T11:45:01.193Z,97701.47
2022-11-19T11:47:39.786Z,97715.28
2022-11-19T11:50:23.103Z,97718.91
2022-11-19T11:52:54.622Z,97707.34
2022-11-19T11:55:24.443Z,97718.97
2022-11-19T11:58:23.440Z,97714.94
2022-11-19T12:00:56.162Z,97717.28
2022-11-19T12:03:23.939Z,97718.88
2022-11-19T12:05:58.755Z,97717.84
2022-11-19T12:09:08.717Z,97724.56
2022-11-19T12:11:55.238Z,97728.69
2022-11-19T12:14:39.352Z,97730.03
2022-11-19T12:17:19.879Z,97724.25
2022-11-19T12:20:19.220Z,97728.13
2022-11-19T12:23:32.739Z,97721.84
2022-11-19T12:26:37.527Z,97724.78
2022-11-19T12:29:54.116Z,97721.84
2022-11-19T12:32:45.173Z,97721.19
2022-11-19T12:35:44.350Z,97735.53
2022-11-19T12:39:03.388Z,97729.75
2022-11-19T12:42:03.669Z,97726.56
2022-11-19T12:45:11.390Z,97737.94
2022-11-19T12:48:08.880Z,97729.13
2022-11-19T12:50:42.001Z,97732.97
2022-11-19T12:53:50.900Z,97736.13
2022-11-19T12:56:39.157Z,97735.13
2022-11-19T13:00:11.828Z,97733.94
2022-11-19T13:03:04.176Z,97732.28
2022-11-19T13:05:55.848Z,97744.22
2022-11-19T13:08:48.216Z,97747.09
2022-11-19T13:11:43.280Z,97739.53
2022-11-19T13:14:31.118Z,97746.78
2022-11-19T13:17:01.304Z,97740.19
2022-11-19T13:19:38.258Z,97732.84
2022-11-19T13:22:22.284Z,97740.72
2022-11-19T13:25:00.591Z,97736.47
2022-11-19T13:27:31.053Z,97748.28
2022-11-19T13:30:14.474Z,97760.19
2022-11-19T13:33:23.121Z,97755.25
2022-11-19T13:36:03.704Z,97747.75
2022-11-19T13:38:55.080Z,97746.09
2022-11-19T13:41:33.778Z,97754.06
2022-11-19T13:44:19.852Z,97749.81
2022-11-19T13:46:58.547Z,97742.69
2022-11-19T13:50:05.185Z,97737.28
2022-11-19T13:53:02.857Z,97739.59
2022-11-19T13:55:35.294Z,97747.00
2022-11-19T13:58:39.963Z,97751.59
2022-11-19T14:01:43.655Z,97753.09
2022-11-19T14:04:59.567Z,97747.09
2022-11-19T14:07:51.165Z,97747.75
2022-11-19T14:10:45.012Z,97747.94
2022-11-19T14:13:35.006Z,97746.31
2022-11-19T14:16:38.074Z,97748.00
2022-11-19T14:19:32.763Z,97753.53
2022-11-19T14:22:40.503Z,97747.81
2022-11-19T14:25:28.043Z,97751.50
2022-11-19T14:27:55.626Z,97762.38
2022-11-19T14:31:04.468Z,97766.25
2022-11-19T14:34:04.252Z,97750.84
2022-11-19T14:36:47.627Z,97754.25
2022-11-19T14:39:31.790Z,97757.69
2022-11-19T14:42:22.243Z,97766.78
2022-11-19T14:45:03.012Z,97767.59
2022-11-19T14:47:36.443Z,97759.66
2022-11-19T14:50:31.657Z,97757.25
2022-11-19T14:53:02.187Z,97765.28
2022-11-19T14:55:34.246Z,97759.53
2022-11-19T14:58:24.334Z,97762.47
2022-11-19T15:01:08.755Z,97764.66
2022-11-19T15:03:37.840Z,97769.19
2022-11-19T15:06:08.365Z,97770.78
2022-11-19T15:08:54.254Z,97767.44
2022-11-19T15:11:21.874Z,97764.88
2022-11-19T15:15:03.773Z,97764.88
2022-11-19T15:17:33.378Z,97762.28
2022-11-19T15:20:20.966Z,97772.88
2022-11-19T15:23:06.451Z,97778.09
2022-11-19T15:25:51.504Z,97776.22
2022-11-19T15:28:41.668Z,97780.09
2022-11-19T15:31:25.240Z,97781.97
2022-11-19T15:34:21.531Z,97785.69
2022-11-19T15:36:56.195Z,97785.69
2022-11-19T15:39:44.440Z,97789.38
2022-11-19T15:42:20.661Z,97789.28
2022-11-19T15:45:01.994Z,97790.28
2022-11-19T15:47:44.535Z,97800.69
2022-11-19T15:50:21.198Z,97790.34
2022-11-19T15:53:13.607Z,97788.59
2022-11-19T15:55:52.173Z,97787.72
2022-11-19T15:58:26.166Z,97796.19
2022-11-19T16:00:55.855Z,97796.19
2022-11-19T16:03:23.767Z,97795.53
2022-11-19T16:06:16.064Z,97794.97
2022-11-19T16:08:52.958Z,97794.34
2022-11-19T16:11:43.864Z,97786.06
2022-11-19T16:14:46.251Z,97790.66
2022-11-19T16:17:39.866Z,97791.09
2022-11-19T16:20:17.921Z,97795.75
2022-11-19T16:23:21.318Z,97793.75
2022-11-19T16:25:49.941Z,97779.00
2022-11-19T16:28:34.008Z,97773.41
2022-11-19T16:31:05.325Z,97792.97
2022-11-19T16:33:34.687Z,97797.22
2022-11-19T16:36:20.431Z,97794.13
2022-11-19T16:38:53.666Z,97794.47
2022-11-19T16:41:43.211Z,97792.69
2022-11-19T16:44:18.143Z,97787.66
2022-11-19T16:46:46.428Z,97789.44
2022-11-19T16:49:57.599Z,97787.00
2022-11-19T16:52:38.591Z,97789.69
2022-11-19T16:55:18.041Z,97789.22
2022-11-19T16:57:56.112Z,97779.03
2022-11-19T17:00:34.679Z,97774.91
2022-11-19T17:03:34.494Z,97765.72
2022-11-19T17:06:04.595Z,97764.94
2022-11-19T17:08:38.288Z,97771.06
2022-11-19T17:11:43.032Z,97775.50
2022-11-19T17:14:20.824Z,97769.63
2022-11-19T17:16:52.279Z,97776.59
2022-11-19T17:19:36.792Z,97782.78
2022-11-19T17:22:17.784Z,97780.25
2022-11-19T17:24:46.620Z,97770.13
2022-11-19T17:27:29.343Z,97764.94
2022-11-19T17:30:19.068Z,97770.06
2022-11-19T17:32:57.924Z,97764.94
2022-11-19T17:35:47.307Z,97770.06
2022-11-19T17:38:27.978Z,97766.66
2022-11-19T17:41:05.178Z,97776.09
2022-11-19T17:43:58.958Z,97782.09
2022-11-19T17:46:29.554Z,97767.72
2022-11-19T17:48:57.394Z,97767.94
2022-11-19T17:51:26.716Z,97774.59
2022-11-19T17:53:56.623Z,97778.91
2022-11-19T17:56:30.955Z,97770.34
2022-11-19T17:58:59.773Z,97776.34
2022-11-19T18:01:27.571Z,97769.72
2022-11-19T18:03:55.133Z,97769.81
2022-11-19T18:06:22.350Z,97771.50
2022-11-19T18:08:49.900Z,97769.91
2022-11-19T18:11:26.110Z,97770.25
2022-11-19T18:13:57.563Z,97775.38
2022-11-19T18:16:28.752Z,97771.06
2022-11-19T18:18:56.346Z,97767.91
2022-11-19T18:21:24.084Z,97776.34
2022-11-19T18:23:52.212Z,97770.44
2022-11-19T18:26:22.945Z,97772.47
2022-11-19T18:28:50.898Z,97777.63
2022-11-19T18:31:26.293Z,97784.41
2022-11-19T18:33:56.791Z,97779.38
2022-11-19T18:36:25.395Z,97784.38
2022-11-19T18:38:54.905Z,97785.47
2022-11-19T18:41:22.617Z,97776.94
2022-11-19T18:44:08.710Z,97778.78
2022-11-19T18:46:35.961Z,97780.44
2022-11-19T18:49:04.514Z,97786.56
2022-11-19T18:51:32.627Z,97783.25
2022-11-19T18:54:00.451Z,97786.59
2022-11-19T18:56:27.737Z,97784.22
2022-11-19T18:58:57.211Z,97792.84
2022-11-19T19:01:27.713Z,97790.22
2022-11-19T19:03:55.186Z,97792.75
2022-11-19T19:06:23.403Z,97785.94
2022-11-19T19:08:51.599Z,97785.94
2022-11-19T19:11:37.348Z,97780.13
2022-11-19T19:14:05.065Z,97781.03
2022-11-19T19:16:32.603Z,97776.78
2022-11-19T19:19:02.218Z,97778.75
2022-11-19T19:21:30.213Z,97773.63
2022-11-19T19:23:57.820Z,97776.19
2022-11-19T19:26:25.039Z,97772.75
2022-11-19T19:28:54.958Z,97781.59
2022-11-19T19:31:24.346Z,97775.50
2022-11-19T19:33:52.816Z,97773.03
2022-11-19T19:36:21.993Z,97775.50
2022-11-19T19:38:49.987Z,97782.38
2022-11-19T19:41:26.730Z,97789.31
2022-11-19T19:43:59.609Z,97785.88
2022-11-19T19:46:27.275Z,97787.69
2022-11-19T19:48:56.468Z,97786.16
2022-11-19T19:51:27.613Z,97780.09
2022-11-19T19:53:56.206Z,97779.25
2022-11-19T19:56:27.937Z,97775.91
2022-11-19T19:58:57.640Z,97765.06
2022-11-19T20:01:29.173Z,97765.63
2022-11-19T20:04:11.766Z,97772.50
2022-11-19T20:06:45.191Z,97781.78
2022-11-19T20:09:13.348Z,97771.66
2022-11-19T20:11:40.870Z,97776.09
2022-11-19T20:14:09.553Z,97777.72
2022-11-19T20:16:40.855Z,97777.81
2022-11-19T20:19:14.613Z,97780.63
2022-11-19T20:21:42.159Z,97781.16
2022-11-19T20:24:13.609Z,97779.63
2022-11-19T20:26:42.829Z,97782.88
2022-11-19T20:29:14.228Z,97779.50
2022-11-19T20:31:47.480Z,97779.66
2022-11-19T20:34:17.064Z,97783.09
2022-11-19T20:36:45.007Z,97783.91
2022-11-19T20:39:13.109Z,97778.97
2022-11-19T20:41:59.166Z,97785.78
2022-11-19T20:44:26.823Z,97785.88
2022-11-19T20:47:02.247Z,97780.72
2022-11-19T20:49:36.485Z,97790.16
2022-11-19T20:52:03.938Z,97773.09
2022-11-19T20:54:32.508Z,97774.72
2022-11-19T20:57:00.760Z,97772.97
2022-11-19T20:59:28.929Z,97770.31
2022-11-19T21:01:57.664Z,97768.06
2022-11-19T21:04:28.634Z,97765.38
2022-11-19T21:06:56.267Z,97765.50
2022-11-19T21:09:24.393Z,97757.81
2022-11-19T21:11:52.139Z,97760.44
2022-11-19T21:14:20.276Z,97757.81
2022-11-19T21:16:47.936Z,97760.34
2022-11-19T21:19:16.433Z,97770.63
2022-11-19T21:21:45.648Z,97764.50
2022-11-19T21:24:13.708Z,97768.63
2022-11-19T21:26:41.651Z,97766.97
2022-11-19T21:29:09.420Z,97766.06
2022-11-19T21:31:46.561Z,97764.41
2022-11-19T21:34:20.783Z,97754.38
2022-11-19T21:36:49.758Z,97760.31
2022-11-19T21:39:20.116Z,97755.31
2022-11-19T21:41:48.006Z,97763.03
2022-11-19T21:44:21.068Z,97769.06
2022-11-19T21:46:49.288Z,97770.63
2022-11-19T21:49:16.866Z,97767.28
2022-11-19T21:51:44.607Z,97765.59
2022-11-19T21:54:12.176Z,97766.47
2022-11-19T21:56:39.472Z,97771.50
2022-11-19T21:59:07.695Z,97773.09
2022-11-19T22:01:35.438Z,97765.50
2022-11-19T22:04:03.428Z,97768.81
2022-11-19T22:06:32.565Z,97766.34
2022-11-19T22:09:00.283Z,97774.06
2022-11-19T22:11:30.775Z,97774.84
2022-11-19T22:14:06.618Z,97785.16
2022-11-19T22:16:40.153Z,97787.69
2022-11-19T22:19:10.107Z,97781.94
2022-11-19T22:21:37.666Z,97776.88
2022-11-19T22:24:06.399Z,97780.63
2022-11-19T22:26:33.703Z,97779.50
2022-11-19T22:29:01.325Z,97773.53
2022-11-19T22:31:28.525Z,97773.59
2022-11-19T22:33:56.444Z,97766.66
2022-11-19T22:36:23.984Z,97763.28
2022-11-19T22:38:52.584Z,97769.25
2022-11-19T22:41:22.185Z,97761.63
2022-11-19T22:43:50.850Z,97762.38
2022-11-19T22:46:19.786Z,97764.88
2022-11-19T22:48:47.936Z,97764.97
2022-11-19T22:51:20.142Z,97768.28
2022-11-19T22:53:52.927Z,97767.44
2022-11-19T22:56:24.032Z,97757.47
2022-11-19T22:58:52.895Z,97764.16
2022-11-19T23:01:24.570Z,97765.13
2022-11-19T23:03:53.678Z,97765.16
2022-11-19T23:06:22.873Z,97778.75
2022-11-19T23:08:51.710Z,97775.31
2022-11-19T23:11:40.478Z,97771.28
2022-11-19T23:14:11.800Z,97767.03
2022-11-19T23:16:40.780Z,97768.91
2022-11-19T23:19:10.087Z,97763.00
2022-11-19T23:21:37.722Z,97773.22
2022-11-19T23:24:06.493Z,97765.59
2022-11-19T23:26:34.384Z,97763.84
2022-11-19T23:29:02.041Z,97762.88
2022-11-19T23:31:33.153Z,97762.91
2022-11-19T23:34:00.899Z,97768.75
2022-11-19T23:36:35.570Z,97770.50
2022-11-19T23:39:05.267Z,97769.75
2022-11-19T23:41:34.567Z,97769.81
2022-11-19T23:44:02.821Z,97765.66
2022-11-19T23:46:33.700Z,97767.28
2022-11-19T23:49:03.300Z,97760.63
2022-11-19T23:51:34.488Z,97753.81
2022-11-19T23:54:03.268Z,97751.22
2022-11-19T23:56:35.982Z,97752.06
2022-11-19T23:59:05.796Z,97749.06
